createdAt,value
2022-09-16T00:01:39.588Z,70.55
2022-09-16T00:04:07.013Z,70.23
2022-09-16T00:06:34.393Z,70.71
2022-09-16T00:09:01.925Z,70.83
2022-09-16T00:11:29.385Z,70.91
2022-09-16T00:13:56.775Z,70.80
2022-09-16T00:16:24.965Z,70.75
2022-09-16T00:18:56.265Z,71.01
2022-09-16T00:21:23.656Z,71.09
2022-09-16T00:23:51.084Z,71.11
2022-09-16T00:26:18.550Z,71.23
2022-09-16T00:28:48.446Z,70.99
2022-09-16T00:31:15.870Z,71.63
2022-09-16T00:33:43.291Z,71.57
2022-09-16T00:36:13.365Z,71.65
2022-09-16T00:38:40.885Z,71.82
2022-09-16T00:41:08.301Z,71.42
2022-09-16T00:43:49.603Z,71.94
2022-09-16T00:46:17.028Z,72.15
2022-09-16T00:48:44.497Z,72.16
2022-09-16T00:51:13.163Z,72.49
2022-09-16T00:53:43.167Z,72.54
2022-09-16T00:56:11.060Z,72.52
2022-09-16T00:58:40.518Z,72.15
2022-09-16T01:01:08.026Z,72.33
2022-09-16T01:03:36.865Z,72.51
2022-09-16T01:06:04.349Z,72.85
2022-09-16T01:08:33.052Z,72.32
2022-09-16T01:11:00.431Z,72.77
2022-09-16T01:13:27.820Z,72.19
2022-09-16T01:15:59.435Z,72.77
2022-09-16T01:18:27.939Z,72.35
2022-09-16T01:21:07.516Z,72.73
2022-09-16T01:23:58.603Z,72.90
2022-09-16T01:26:36.774Z,72.67
2022-09-16T01:29:14.083Z,72.59
2022-09-16T01:31:44.068Z,72.54
2022-09-16T01:34:16.171Z,72.68
2022-09-16T01:36:47.092Z,73.11
2022-09-16T01:39:20.137Z,72.83
2022-09-16T01:41:57.472Z,72.84
2022-09-16T01:44:26.857Z,72.66
2022-09-16T01:46:59.993Z,72.54
2022-09-16T01:49:29.537Z,73.01
2022-09-16T01:51:59.430Z,73.10
2022-09-16T01:54:28.374Z,73.06
2022-09-16T01:56:58.983Z,72.71
2022-09-16T01:59:28.296Z,73.12
2022-09-16T02:01:58.427Z,73.02
2022-09-16T02:04:27.904Z,73.36
2022-09-16T02:06:55.323Z,73.15
2022-09-16T02:09:24.156Z,73.34
2022-09-16T02:11:51.885Z,72.96
2022-09-16T02:14:20.345Z,73.05
2022-09-16T02:16:49.727Z,73.12
2022-09-16T02:19:20.694Z,72.92
2022-09-16T02:21:48.163Z,72.76
2022-09-16T02:24:17.258Z,73.17
2022-09-16T02:26:47.303Z,73.03
2022-09-16T02:29:15.864Z,72.93
2022-09-16T02:31:44.160Z,73.26
2022-09-16T02:34:13.716Z,73.11
2022-09-16T02:36:44.193Z,73.07
2022-09-16T02:39:12.803Z,73.14
2022-09-16T02:41:40.289Z,72.91
2022-09-16T02:44:07.667Z,73.07
2022-09-16T02:46:38.828Z,72.83
2022-09-16T02:49:13.981Z,73.16
2022-09-16T02:51:46.171Z,72.79
2022-09-16T02:54:16.721Z,72.87
2022-09-16T02:56:44.528Z,72.86
2022-09-16T02:59:12.762Z,72.48
2022-09-16T03:01:44.139Z,72.87
2022-09-16T03:04:12.075Z,72.53
2022-09-16T03:06:39.589Z,72.53
2022-09-16T03:09:09.348Z,72.80
2022-09-16T03:12:05.084Z,72.89
2022-09-16T03:14:52.995Z,72.90
2022-09-16T03:17:28.438Z,73.07
2022-09-16T03:20:00.325Z,72.99
2022-09-16T03:22:32.594Z,73.24
2022-09-16T03:25:05.134Z,73.23
2022-09-16T03:27:35.131Z,73.35
2022-09-16T03:30:04.134Z,72.90
2022-09-16T03:32:32.836Z,72.91
2022-09-16T03:35:01.718Z,72.81
2022-09-16T03:37:32.041Z,73.23
2022-09-16T03:40:00.958Z,73.51
2022-09-16T03:42:28.392Z,73.26
2022-09-16T03:44:55.783Z,73.05
2022-09-16T03:47:23.179Z,73.00
2022-09-16T03:49:50.763Z,73.03
2022-09-16T03:52:19.077Z,73.24
2022-09-16T03:54:46.480Z,72.99
2022-09-16T03:57:15.199Z,73.24
2022-09-16T03:59:42.861Z,73.13
2022-09-16T04:02:10.276Z,73.12
2022-09-16T04:04:37.660Z,72.79
2022-09-16T04:07:05.207Z,73.02
2022-09-16T04:09:32.778Z,73.04
2022-09-16T04:12:00.165Z,72.74
2022-09-16T04:14:28.841Z,73.30
2022-09-16T04:16:56.283Z,72.88
2022-09-16T04:19:24.186Z,73.24
2022-09-16T04:21:51.565Z,73.44
2022-09-16T04:24:19.036Z,73.67
2022-09-16T04:26:46.460Z,72.92
2022-09-16T04:29:14.021Z,72.78
2022-09-16T04:31:42.893Z,72.50
2022-09-16T04:34:11.768Z,72.22
2022-09-16T04:36:39.538Z,72.90
2022-09-16T04:39:06.975Z,72.43
2022-09-16T04:41:34.378Z,72.49
2022-09-16T04:44:01.873Z,72.66
2022-09-16T04:46:30.242Z,72.50
2022-09-16T04:48:59.504Z,72.93
2022-09-16T04:51:27.291Z,72.56
2022-09-16T04:53:55.194Z,73.04
2022-09-16T04:56:23.599Z,72.33
2022-09-16T04:58:51.654Z,72.80
2022-09-16T05:01:20.991Z,72.75
2022-09-16T05:03:49.553Z,72.43
2022-09-16T05:06:20.897Z,72.27
2022-09-16T05:08:48.529Z,72.15
2022-09-16T05:11:19.117Z,72.29
2022-09-16T05:13:46.507Z,72.20
2022-09-16T05:16:14.683Z,72.25
2022-09-16T05:18:42.728Z,72.57
2022-09-16T05:21:11.317Z,72.21
2022-09-16T05:23:45.888Z,72.31
2022-09-16T05:26:15.084Z,72.43
2022-09-16T05:28:43.088Z,71.89
2022-09-16T05:31:11.578Z,72.18
2022-09-16T05:33:38.998Z,73.18
2022-09-16T05:36:07.342Z,72.12
2022-09-16T05:38:34.816Z,71.47
2022-09-16T05:41:03.666Z,70.90
2022-09-16T05:43:31.105Z,71.00
2022-09-16T05:45:58.549Z,70.84
2022-09-16T05:48:26.118Z,70.84
2022-09-16T05:50:53.944Z,70.66
2022-09-16T05:53:21.613Z,70.40
2022-09-16T05:55:56.060Z,70.26
2022-09-16T05:58:24.819Z,70.31
2022-09-16T06:00:52.204Z,70.48
2022-09-16T06:03:19.601Z,70.44
2022-09-16T06:05:46.974Z,70.12
2022-09-16T06:08:14.365Z,70.26
2022-09-16T06:10:42.061Z,70.26
2022-09-16T06:13:09.535Z,70.08
2022-09-16T06:15:38.298Z,69.91
2022-09-16T06:18:06.539Z,70.16
2022-09-16T06:20:34.104Z,69.93
2022-09-16T06:23:01.486Z,70.21
2022-09-16T06:25:29.215Z,70.35
2022-09-16T06:27:56.607Z,70.21
2022-09-16T06:30:26.103Z,70.17
2022-09-16T06:32:57.879Z,70.16
2022-09-16T06:35:25.252Z,69.82
2022-09-16T06:37:52.648Z,70.03
2022-09-16T06:40:20.279Z,69.78
2022-09-16T06:42:47.885Z,69.67
2022-09-16T06:45:15.264Z,70.02
2022-09-16T06:47:42.651Z,70.04
2022-09-16T06:50:11.589Z,69.62
2022-09-16T06:52:38.976Z,69.80
2022-09-16T06:55:07.062Z,69.63
2022-09-16T06:57:34.454Z,69.37
2022-09-16T07:00:01.994Z,69.24
2022-09-16T07:02:31.150Z,69.26
2022-09-16T07:04:58.604Z,69.17
2022-09-16T07:07:30.587Z,69.41
2022-09-16T07:09:58.641Z,69.23
2022-09-16T07:12:26.033Z,69.44
2022-09-16T07:14:53.864Z,69.54
2022-09-16T07:17:23.570Z,69.34
2022-09-16T07:19:50.966Z,69.19
2022-09-16T07:22:18.368Z,69.20
2022-09-16T07:24:47.079Z,69.31
2022-09-16T07:27:14.472Z,69.05
2022-09-16T07:29:41.865Z,69.00
2022-09-16T07:32:09.390Z,68.94
2022-09-16T07:34:36.770Z,68.83
2022-09-16T07:37:04.167Z,68.86
2022-09-16T07:39:31.567Z,68.93
2022-09-16T07:42:05.870Z,69.17
2022-09-16T07:44:33.678Z,69.07
2022-09-16T07:47:01.064Z,69.18
2022-09-16T07:49:28.449Z,68.77
2022-09-16T07:51:55.859Z,68.61
2022-09-16T07:54:23.255Z,68.66
2022-09-16T07:56:50.649Z,68.58
2022-09-16T07:59:19.809Z,68.42
2022-09-16T08:01:48.274Z,68.40
2022-09-16T08:04:15.738Z,68.33
2022-09-16T08:06:43.167Z,68.37
2022-09-16T08:09:34.274Z,68.35
2022-09-16T08:11:57.915Z,68.06
2022-09-16T08:14:26.785Z,68.14
2022-09-16T08:16:54.239Z,67.96
2022-09-16T08:19:22.524Z,68.11
2022-09-16T08:21:49.967Z,67.82
2022-09-16T08:24:17.372Z,67.75
2022-09-16T08:26:44.795Z,67.78
2022-09-16T08:29:12.677Z,67.87
2022-09-16T08:31:41.849Z,67.69
2022-09-16T08:34:09.252Z,67.57
2022-09-16T08:36:36.648Z,67.87
2022-09-16T08:39:04.047Z,67.88
2022-09-16T08:41:37.588Z,67.61
2022-09-16T08:44:12.301Z,67.71
2022-09-16T08:46:44.843Z,67.85
2022-09-16T08:49:17.845Z,67.76
2022-09-16T08:51:45.456Z,67.49
2022-09-16T08:54:16.860Z,67.61
2022-09-16T08:56:44.952Z,67.56
2022-09-16T08:59:14.321Z,67.53
2022-09-16T09:01:46.037Z,66.98
2022-09-16T09:04:13.679Z,67.21
2022-09-16T09:06:49.275Z,67.18
2022-09-16T09:09:27.671Z,67.16
2022-09-16T09:11:58.182Z,67.03
2022-09-16T09:14:33.048Z,67.03
2022-09-16T09:17:04.486Z,66.80
2022-09-16T09:19:39.265Z,66.84
2022-09-16T09:22:16.436Z,66.93
2022-09-16T09:24:57.253Z,66.84
2022-09-16T09:27:27.600Z,66.80
2022-09-16T09:30:04.054Z,66.88
2022-09-16T09:32:49.031Z,66.77
2022-09-16T09:35:23.743Z,66.63
2022-09-16T09:38:05.767Z,66.74
2022-09-16T09:40:34.689Z,66.65
2022-09-16T09:43:07.325Z,66.75
2022-09-16T09:45:36.374Z,66.56
2022-09-16T09:48:11.221Z,66.67
2022-09-16T09:50:41.379Z,66.81
2022-09-16T09:53:13.812Z,66.67
2022-09-16T09:55:41.987Z,66.89
2022-09-16T09:58:18.682Z,66.86
2022-09-16T10:00:46.522Z,67.19
2022-09-16T10:03:16.497Z,66.82
2022-09-16T10:05:43.994Z,66.83
2022-09-16T10:08:16.620Z,66.72
2022-09-16T10:10:48.677Z,66.58
2022-09-16T10:13:17.330Z,66.79
2022-09-16T10:15:44.789Z,66.55
2022-09-16T10:18:15.639Z,66.34
2022-09-16T10:20:44.317Z,66.33
2022-09-16T10:23:12.662Z,66.69
2022-09-16T10:25:40.034Z,66.62
2022-09-16T10:28:20.221Z,66.79
2022-09-16T10:30:48.635Z,66.31
2022-09-16T10:33:18.850Z,66.48
2022-09-16T10:35:55.075Z,66.33
2022-09-16T10:38:23.357Z,65.99
2022-09-16T10:40:54.348Z,66.31
2022-09-16T10:43:21.785Z,66.53
2022-09-16T10:45:50.282Z,66.61
2022-09-16T10:48:20.020Z,66.78
2022-09-16T10:50:55.224Z,66.63
2022-09-16T10:53:24.395Z,66.43
2022-09-16T10:55:57.956Z,66.17
2022-09-16T10:58:25.339Z,66.36
2022-09-16T11:01:07.761Z,66.31
2022-09-16T11:03:52.894Z,66.43
2022-09-16T11:06:28.544Z,66.44
2022-09-16T11:09:01.063Z,66.33
2022-09-16T11:11:44.835Z,66.21
2022-09-16T11:14:15.907Z,66.30
2022-09-16T11:16:55.337Z,66.34
2022-09-16T11:19:27.125Z,66.56
2022-09-16T11:22:04.566Z,66.60
2022-09-16T11:24:55.119Z,66.59
2022-09-16T11:27:29.589Z,66.37
2022-09-16T11:30:02.916Z,65.96
2022-09-16T11:32:35.399Z,66.02
2022-09-16T11:35:17.352Z,66.14
2022-09-16T11:37:47.165Z,65.79
2022-09-16T11:40:22.790Z,65.91
2022-09-16T11:42:53.178Z,65.36
2022-09-16T11:45:31.515Z,65.19
2022-09-16T11:48:08.282Z,65.35
2022-09-16T11:50:42.371Z,65.55
2022-09-16T11:53:38.244Z,65.71
2022-09-16T11:56:09.709Z,65.67
2022-09-16T11:58:39.123Z,65.24
2022-09-16T12:01:11.019Z,65.03
2022-09-16T12:03:40.134Z,65.08
2022-09-16T12:06:11.101Z,64.78
2022-09-16T12:08:45.311Z,65.03
2022-09-16T12:11:18.268Z,64.95
2022-09-16T12:13:48.273Z,64.39
2022-09-16T12:16:18.190Z,64.79
2022-09-16T12:18:46.671Z,65.10
2022-09-16T12:21:17.213Z,65.01
2022-09-16T12:23:46.305Z,65.09
2022-09-16T12:26:15.004Z,64.99
2022-09-16T12:28:45.938Z,65.11
2022-09-16T12:31:14.808Z,64.41
2022-09-16T12:33:46.029Z,64.66
2022-09-16T12:36:14.108Z,65.49
2022-09-16T12:38:42.806Z,65.39
2022-09-16T12:41:17.896Z,65.09
2022-09-16T12:44:17.055Z,64.97
2022-09-16T12:47:19.017Z,65.18
2022-09-16T12:50:08.813Z,65.32
2022-09-16T12:52:45.638Z,64.71
2022-09-16T12:55:40.179Z,64.83
2022-09-16T12:58:18.936Z,64.72
2022-09-16T13:00:54.265Z,64.74
2022-09-16T13:03:22.789Z,64.54
2022-09-16T13:05:51.357Z,64.88
2022-09-16T13:08:21.917Z,65.12
2022-09-16T13:11:12.116Z,64.94
2022-09-16T13:13:49.065Z,65.00
2022-09-16T13:16:16.488Z,64.73
2022-09-16T13:18:45.411Z,64.77
2022-09-16T13:21:22.396Z,64.47
2022-09-16T13:23:53.995Z,64.58
2022-09-16T13:26:22.673Z,64.59
2022-09-16T13:28:50.075Z,64.61
2022-09-16T13:31:19.109Z,64.79
2022-09-16T13:33:47.208Z,64.43
2022-09-16T13:36:30.622Z,64.78
2022-09-16T13:38:58.506Z,64.64
2022-09-16T13:41:37.458Z,64.46
2022-09-16T13:44:20.391Z,63.54
2022-09-16T13:46:47.782Z,61.53
2022-09-16T13:49:20.572Z,61.35
2022-09-16T13:51:48.848Z,60.77
2022-09-16T13:54:48.068Z,55.97
2022-09-16T13:57:28.961Z,57.20
2022-09-16T14:00:08.653Z,56.50
2022-09-16T14:02:56.539Z,56.71
2022-09-16T14:05:30.572Z,56.38
2022-09-16T14:08:00.366Z,56.05
2022-09-16T14:10:31.816Z,54.19
2022-09-16T14:13:07.182Z,54.82
2022-09-16T14:15:35.558Z,53.98
2022-09-16T14:18:02.998Z,54.42
2022-09-16T14:20:30.389Z,54.17
2022-09-16T14:23:01.545Z,54.00
2022-09-16T14:25:30.927Z,53.94
2022-09-16T14:28:10.421Z,53.35
2022-09-16T14:30:38.836Z,53.99
2022-09-16T14:33:07.954Z,53.45
2022-09-16T14:35:35.458Z,53.57
2022-09-16T14:38:04.334Z,52.09
2022-09-16T14:40:31.945Z,52.27
2022-09-16T14:43:01.205Z,52.42
2022-09-16T14:45:30.277Z,52.07
2022-09-16T14:47:57.940Z,51.58
2022-09-16T14:50:27.194Z,51.58
2022-09-16T14:52:55.846Z,51.12
2022-09-16T14:55:24.661Z,51.14
2022-09-16T14:57:52.111Z,50.91
2022-09-16T15:00:20.193Z,50.89
2022-09-16T15:02:51.414Z,50.63
2022-09-16T15:05:23.210Z,50.39
2022-09-16T15:08:12.282Z,50.16
2022-09-16T15:10:51.551Z,50.94
2022-09-16T15:13:20.640Z,50.50
2022-09-16T15:15:50.071Z,51.04
2022-09-16T15:18:24.132Z,51.93
2022-09-16T15:20:54.335Z,52.70
2022-09-16T15:23:23.427Z,53.22
2022-09-16T15:25:54.433Z,54.13
2022-09-16T15:28:21.816Z,54.53
2022-09-16T15:30:50.938Z,55.78
2022-09-16T15:33:31.092Z,56.35
2022-09-16T15:36:01.624Z,56.83
2022-09-16T15:38:29.081Z,57.81
2022-09-16T15:41:04.381Z,57.63
2022-09-16T15:43:35.361Z,57.77
2022-09-16T15:46:03.457Z,57.79
2022-09-16T15:48:35.158Z,58.17
2022-09-16T15:51:05.028Z,58.34
2022-09-16T15:53:38.035Z,59.09
2022-09-16T15:56:07.707Z,59.73
2022-09-16T15:58:43.207Z,59.35
2022-09-16T16:01:14.965Z,59.78
2022-09-16T16:03:55.419Z,59.46
2022-09-16T16:06:38.044Z,59.56
2022-09-16T16:09:05.445Z,59.84
2022-09-16T16:11:33.062Z,60.10
2022-09-16T16:14:02.013Z,60.23
2022-09-16T16:16:29.768Z,61.18
2022-09-16T16:18:58.453Z,60.14
2022-09-16T16:21:25.912Z,60.37
2022-09-16T16:23:53.341Z,60.42
2022-09-16T16:26:20.748Z,60.36
2022-09-16T16:28:48.201Z,60.36
2022-09-16T16:31:16.488Z,60.22
2022-09-16T16:33:45.015Z,60.30
2022-09-16T16:36:14.577Z,60.45
2022-09-16T16:38:42.069Z,60.59
2022-09-16T16:41:10.589Z,60.71
2022-09-16T16:43:37.986Z,60.69
2022-09-16T16:46:05.457Z,60.61
2022-09-16T16:48:32.880Z,60.56
2022-09-16T16:51:00.929Z,60.61
2022-09-16T16:53:29.627Z,60.31
2022-09-16T16:56:03.421Z,60.35
2022-09-16T16:58:30.981Z,60.24
2022-09-16T17:00:58.587Z,59.88
2022-09-16T17:03:26.014Z,59.82
2022-09-16T17:05:53.482Z,59.74
2022-09-16T17:08:20.935Z,59.52
2022-09-16T17:10:49.834Z,59.49
2022-09-16T17:13:17.363Z,59.39
2022-09-16T17:15:44.830Z,59.31
2022-09-16T17:18:12.321Z,59.56
2022-09-16T17:20:39.716Z,59.50
2022-09-16T17:23:07.123Z,59.54
2022-09-16T17:25:34.583Z,59.57
2022-09-16T17:28:03.757Z,59.59
2022-09-16T17:30:31.220Z,59.74
2022-09-16T17:32:58.683Z,59.88
2022-09-16T17:35:26.176Z,59.97
2022-09-16T17:37:53.711Z,59.75
2022-09-16T17:40:21.894Z,59.85
2022-09-16T17:42:51.833Z,59.61
2022-09-16T17:45:20.619Z,59.55
2022-09-16T17:47:48.051Z,59.59
2022-09-16T17:50:19.759Z,59.71
2022-09-16T17:52:50.228Z,59.96
2022-09-16T17:55:17.611Z,60.26
2022-09-16T17:57:45.044Z,60.34
2022-09-16T18:00:13.725Z,60.48
2022-09-16T18:02:42.974Z,60.44
2022-09-16T18:05:10.636Z,60.82
2022-09-16T18:07:38.042Z,60.44
2022-09-16T18:10:06.245Z,60.70
2022-09-16T18:12:33.620Z,60.85
2022-09-16T18:15:00.999Z,61.51
2022-09-16T18:17:28.559Z,61.06
2022-09-16T18:19:57.261Z,61.19
2022-09-16T18:22:24.718Z,61.51
2022-09-16T18:24:52.095Z,61.42
2022-09-16T18:27:19.695Z,62.12
2022-09-16T18:29:48.257Z,61.68
2022-09-16T18:32:15.633Z,62.44
2022-09-16T18:34:43.047Z,62.63
2022-09-16T18:37:11.729Z,62.39
2022-09-16T18:39:39.108Z,62.48
2022-09-16T18:42:06.774Z,62.29
2022-09-16T18:44:34.236Z,62.15
2022-09-16T18:47:01.623Z,62.33
2022-09-16T18:49:30.084Z,62.46
2022-09-16T18:51:57.752Z,62.53
2022-09-16T18:54:28.502Z,62.72
2022-09-16T18:56:56.336Z,62.49
2022-09-16T18:59:26.352Z,62.54
2022-09-16T19:01:54.542Z,62.14
2022-09-16T19:04:23.106Z,62.59
2022-09-16T19:06:51.472Z,62.46
2022-09-16T19:09:20.675Z,62.47
2022-09-16T19:11:49.491Z,62.57
2022-09-16T19:14:17.429Z,62.71
2022-09-16T19:16:45.489Z,62.42
2022-09-16T19:19:13.653Z,62.55
2022-09-16T19:21:41.213Z,62.45
2022-09-16T19:24:10.642Z,62.34
2022-09-16T19:26:38.166Z,62.80
2022-09-16T19:29:07.047Z,62.63
2022-09-16T19:31:35.729Z,62.57
2022-09-16T19:34:03.117Z,62.40
2022-09-16T19:36:31.516Z,62.40
2022-09-16T19:38:59.086Z,62.71
2022-09-16T19:41:27.740Z,62.63
2022-09-16T19:43:55.420Z,62.85
2022-09-16T19:46:24.377Z,62.78
2022-09-16T19:48:52.106Z,62.96
2022-09-16T19:51:20.546Z,62.92
2022-09-16T19:53:49.268Z,62.69
2022-09-16T19:56:17.773Z,62.89
2022-09-16T19:58:45.690Z,62.76
2022-09-16T20:01:13.908Z,62.79
2022-09-16T20:03:43.764Z,62.81
2022-09-16T20:06:11.874Z,63.01
2022-09-16T20:08:41.344Z,63.08
2022-09-16T20:11:09.491Z,63.04
2022-09-16T20:13:36.872Z,62.93
2022-09-16T20:16:05.829Z,62.94
2022-09-16T20:18:33.476Z,63.22
2022-09-16T20:21:03.226Z,63.14
2022-09-16T20:23:30.623Z,63.46
2022-09-16T20:25:58.031Z,63.04
2022-09-16T20:28:25.479Z,63.30
2022-09-16T20:30:53.036Z,63.17
2022-09-16T20:33:20.430Z,63.42
2022-09-16T20:35:47.832Z,63.36
2022-09-16T20:38:16.487Z,63.15
2022-09-16T20:40:44.673Z,63.25
2022-09-16T20:43:12.339Z,63.18
2022-09-16T20:45:39.794Z,63.26
2022-09-16T20:48:07.303Z,63.35
2022-09-16T20:50:37.000Z,63.20
2022-09-16T20:53:04.409Z,63.53
2022-09-16T20:55:33.144Z,63.29
2022-09-16T20:58:00.533Z,63.30
2022-09-16T21:00:28.100Z,63.38
2022-09-16T21:02:55.646Z,63.37
2022-09-16T21:05:23.053Z,63.43
2022-09-16T21:07:50.720Z,63.30
2022-09-16T21:10:19.379Z,63.16
2022-09-16T21:12:48.641Z,63.21
2022-09-16T21:15:16.214Z,63.29
2022-09-16T21:17:43.586Z,63.10
2022-09-16T21:20:11.112Z,63.08
2022-09-16T21:22:38.824Z,63.22
2022-09-16T21:25:06.850Z,63.34
2022-09-16T21:27:34.278Z,63.44
2022-09-16T21:30:03.595Z,63.48
2022-09-16T21:32:31.841Z,63.40
2022-09-16T21:34:59.400Z,63.55
2022-09-16T21:37:26.781Z,63.59
2022-09-16T21:39:54.182Z,63.32
2022-09-16T21:42:21.569Z,63.26
2022-09-16T21:44:48.954Z,63.36
2022-09-16T21:47:17.619Z,63.37
2022-09-16T21:49:45.000Z,63.42
2022-09-16T21:52:12.452Z,63.53
2022-09-16T21:54:39.837Z,63.75
2022-09-16T21:57:07.228Z,63.64
2022-09-16T21:59:34.623Z,63.78
2022-09-16T22:02:03.934Z,63.46
2022-09-16T22:04:32.811Z,63.85
2022-09-16T22:07:00.180Z,63.82
2022-09-16T22:09:27.605Z,63.51
2022-09-16T22:11:55.032Z,63.69
2022-09-16T22:14:22.444Z,63.52
2022-09-16T22:16:49.828Z,63.68
2022-09-16T22:19:18.418Z,63.70
2022-09-16T22:21:48.903Z,63.77
2022-09-16T22:24:19.822Z,63.78
2022-09-16T22:26:47.207Z,63.64
2022-09-16T22:29:14.602Z,63.63
2022-09-16T22:31:42.199Z,63.79
2022-09-16T22:34:09.679Z,63.57
2022-09-16T22:36:37.483Z,63.83
2022-09-16T22:39:07.246Z,63.72
2022-09-16T22:41:34.721Z,63.81
2022-09-16T22:44:02.419Z,63.64
2022-09-16T22:46:30.891Z,63.70
2022-09-16T22:48:59.114Z,63.74
2022-09-16T22:51:26.826Z,63.52
2022-09-16T22:53:54.249Z,63.77
2022-09-16T22:56:24.768Z,63.90
2022-09-16T22:58:52.621Z,63.80
2022-09-16T23:01:21.260Z,63.87
2022-09-16T23:03:52.527Z,63.78
2022-09-16T23:06:19.946Z,63.64
2022-09-16T23:08:47.425Z,63.65
2022-09-16T23:11:16.226Z,63.84
2022-09-16T23:13:45.189Z,63.94
2022-09-16T23:16:15.017Z,63.75
2022-09-16T23:18:42.851Z,63.98
2022-09-16T23:21:11.391Z,63.84
2022-09-16T23:23:39.953Z,63.84
2022-09-16T23:26:09.695Z,63.91
2022-09-16T23:28:37.110Z,63.84
2022-09-16T23:31:06.720Z,63.84
2022-09-16T23:33:34.190Z,63.75
2022-09-16T23:36:01.638Z,63.94
2022-09-16T23:38:29.184Z,63.78
2022-09-16T23:40:56.566Z,63.83
2022-09-16T23:43:25.074Z,63.97
2022-09-16T23:45:52.776Z,63.83
2022-09-16T23:48:21.444Z,63.99
2022-09-16T23:50:48.817Z,63.72
2022-09-16T23:53:16.549Z,63.78
2022-09-16T23:55:44.071Z,63.71
2022-09-16T23:58:11.499Z,63.78
